Time;durP1;ratioP1;P1;durP2;ratioP2;P2;SDS_P1;SDS_P2;PMS_P1;PMS_P2;Temp;Humidity;BMP_temperature;BMP_pressure;BME280_temperature;BME280_humidity;BME280_pressure;Samples;Min_cycle;Max_cycle;Signal;HPM_P1;HPM_P2
2023/05/03 00:02:21;;;;;;;1.08;0.10;;;4.20;99.90;;;;;;5078356;28;20399;-86
2023/05/03 00:04:47;;;;;;;0.03;0.00;;;4.20;99.90;;;;;;5078268;28;20109;-86
2023/05/03 00:07:13;;;;;;;0.00;0.00;;;4.20;99.90;;;;;;5095427;28;20044;-85
2023/05/03 00:09:39;;;;;;;0.00;0.00;;;4.20;99.90;;;;;;5094968;28;20048;-85
2023/05/03 00:12:05;;;;;;;0.00;0.00;;;4.20;99.90;;;;;;5094694;28;20048;-86
2023/05/03 00:14:31;;;;;;;0.00;0.00;;;4.10;99.90;;;;;;5077980;28;20058;-85
2023/05/03 00:17:02;;;;;;;0.00;0.00;;;4.40;99.90;;;;;;5061268;28;20052;-85
2023/05/03 00:19:32;;;;;;;0.00;0.00;;;4.00;99.90;;;;;;5095084;28;20079;-85
2023/05/03 00:22:06;;;;;;;0.00;0.00;;;4.00;99.90;;;;;;5078468;28;20070;-85
2023/05/03 00:24:32;;;;;;;0.00;0.00;;;4.20;99.90;;;;;;5077334;28;20048;-85
2023/05/03 00:26:57;;;;;;;0.00;0.00;;;4.00;99.90;;;;;;5076326;28;20044;-85
2023/05/03 00:29:23;;;;;;;0.00;0.00;;;3.90;99.90;;;;;;5094065;28;20079;-85
2023/05/03 00:31:54;;;;;;;0.00;0.00;;;3.80;99.90;;;;;;5094366;28;20055;-85
2023/05/03 00:34:19;;;;;;;0.00;0.00;;;4.20;99.90;;;;;;5094634;28;20044;-85
2023/05/03 00:36:45;;;;;;;0.00;0.00;;;3.80;99.90;;;;;;5061348;28;20073;-85
2023/05/03 00:39:20;;;;;;;0.00;0.00;;;3.80;99.90;;;;;;5078080;28;20048;-85
2023/05/03 00:41:46;;;;;;;0.00;0.00;;;3.80;99.90;;;;;;5077886;28;20040;-85
2023/05/03 00:44:12;;;;;;;0.00;0.00;;;3.70;99.90;;;;;;5061185;28;20113;-85
2023/05/03 00:46:40;;;;;;;0.00;0.00;;;3.80;99.90;;;;;;5078072;28;20040;-85
2023/05/03 00:49:06;;;;;;;0.20;0.20;;;3.80;99.90;;;;;;5078176;28;20048;-85
2023/05/03 00:51:32;;;;;;;0.00;0.00;;;3.70;99.90;;;;;;5060716;28;20130;-85
2023/05/03 00:53:58;;;;;;;0.00;0.00;;;3.70;99.90;;;;;;5077562;28;20083;-85
2023/05/03 00:56:25;;;;;;;0.00;0.00;;;3.60;99.90;;;;;;5077494;28;20503;-85
2023/05/03 00:58:57;;;;;;;0.00;0.00;;;3.60;99.90;;;;;;5077109;28;20082;-85
2023/05/03 01:01:25;;;;;;;0.00;0.00;;;3.60;99.90;;;;;;5077842;28;20130;-86
2023/05/03 01:03:53;;;;;;;0.00;0.00;;;3.50;99.90;;;;;;5094583;28;20052;-85
2023/05/03 01:06:39;;;;;;;0.00;0.00;;;3.90;99.90;;;;;;5077087;28;20059;-85
2023/05/03 01:09:41;;;;;;;0.00;0.00;;;4.40;99.90;;;;;;5093078;28;20055;-86
2023/05/03 01:12:13;;;;;;;0.00;0.00;;;3.60;99.90;;;;;;5080210;28;20044;-85
2023/05/03 01:15:03;;;;;;;0.00;0.00;;;3.50;99.90;;;;;;5076669;28;20131;-85
2023/05/03 01:18:09;;;;;;;0.00;0.00;;;3.50;99.90;;;;;;5076684;28;20044;-85
2023/05/03 01:20:36;;;;;;;0.00;0.00;;;3.40;99.90;;;;;;4999216;28;20057;-85
2023/05/03 01:23:13;;;;;;;0.00;0.00;;;3.50;99.90;;;;;;5077257;28;20472;-85
2023/05/03 01:25:39;;;;;;;0.00;0.00;;;3.50;99.90;;;;;;5076631;28;20056;-85
2023/05/03 01:28:08;;;;;;;0.00;0.00;;;3.40;99.90;;;;;;5076075;28;20048;-85
2023/05/03 01:30:35;;;;;;;0.00;0.00;;;3.40;99.90;;;;;;5093100;28;20047;-85
2023/05/03 01:33:17;;;;;;;0.00;0.00;;;3.40;99.90;;;;;;5076276;28;20052;-85
2023/05/03 01:36:24;;;;;;;0.00;0.00;;;3.40;99.90;;;;;;5093112;28;20052;-85
2023/05/03 01:38:55;;;;;;;0.00;0.00;;;3.40;99.90;;;;;;5080795;28;20156;-85
2023/05/03 01:41:27;;;;;;;0.25;0.10;;;3.40;99.90;;;;;;5080509;28;20059;-85
2023/05/03 01:43:55;;;;;;;0.00;0.00;;;3.50;99.90;;;;;;5080326;28;20048;-85
2023/05/03 01:46:21;;;;;;;0.00;0.00;;;3.60;99.90;;;;;;5080487;28;20060;-85
2023/05/03 01:48:47;;;;;;;0.10;0.10;;;3.30;99.90;;;;;;5063537;28;20040;-85
2023/05/03 01:51:12;;;;;;;0.00;0.00;;;3.20;99.90;;;;;;5064167;28;20059;-85
2023/05/03 01:53:40;;;;;;;0.00;0.00;;;3.50;99.90;;;;;;5080231;28;20104;-85
2023/05/03 01:56:07;;;;;;;0.00;0.00;;;3.20;99.90;;;;;;5096664;28;20048;-85
2023/05/03 01:58:35;;;;;;;0.00;0.00;;;3.20;99.90;;;;;;5064205;28;20044;-85
2023/05/03 02:01:04;;;;;;;0.00;0.00;;;3.10;99.90;;;;;;5080171;28;20048;-85
2023/05/03 02:03:30;;;;;;;0.00;0.00;;;3.10;99.90;;;;;;5080664;28;20440;-85
2023/05/03 02:05:55;;;;;;;0.08;0.00;;;3.10;99.90;;;;;;5081120;28;20212;-85
2023/05/03 02:08:21;;;;;;;0.00;0.00;;;3.00;99.90;;;;;;5080901;28;20047;-85
2023/05/03 02:10:47;;;;;;;0.05;0.00;;;3.50;99.90;;;;;;5080524;28;20479;-84
2023/05/03 02:13:13;;;;;;;0.00;0.00;;;3.00;99.90;;;;;;5097663;28;20059;-86
2023/05/03 02:15:39;;;;;;;0.00;0.00;;;3.60;99.90;;;;;;5096910;28;20408;-85
2023/05/03 02:18:08;;;;;;;0.00;0.00;;;3.00;99.90;;;;;;5080436;28;20048;-86
2023/05/03 02:20:36;;;;;;;0.00;0.00;;;3.00;99.90;;;;;;5080196;28;20059;-86
2023/05/03 02:23:03;;;;;;;0.00;0.00;;;3.20;99.90;;;;;;5080366;28;20050;-85
2023/05/03 02:25:32;;;;;;;0.00;0.00;;;3.50;99.90;;;;;;5096597;28;20044;-86
2023/05/03 02:28:00;;;;;;;0.00;0.00;;;3.80;99.90;;;;;;5079854;28;20040;-85
2023/05/03 02:30:25;;;;;;;0.00;0.00;;;3.00;99.90;;;;;;5080092;28;20040;-86
2023/05/03 02:32:51;;;;;;;0.00;0.00;;;3.30;99.90;;;;;;5079326;28;20059;-85
2023/05/03 02:35:19;;;;;;;0.00;0.00;;;2.90;99.90;;;;;;5063544;28;20392;-86
2023/05/03 02:37:45;;;;;;;0.00;0.00;;;3.00;99.90;;;;;;5079635;28;20080;-85
2023/05/03 02:40:12;;;;;;;0.00;0.00;;;3.40;99.90;;;;;;5079445;28;20499;-85
2023/05/03 02:42:39;;;;;;;0.00;0.00;;;2.80;99.90;;;;;;5079500;28;20040;-86
2023/05/03 02:45:05;;;;;;;0.00;0.00;;;3.10;99.90;;;;;;5079467;28;20055;-86
2023/05/03 02:47:31;;;;;;;0.00;0.00;;;2.90;99.90;;;;;;5079642;28;20059;-86
2023/05/03 02:49:57;;;;;;;0.00;0.00;;;3.50;99.90;;;;;;5078568;28;20035;-86
2023/05/03 02:52:22;;;;;;;0.00;0.00;;;3.10;99.90;;;;;;5079462;28;20055;-86
2023/05/03 02:54:51;;;;;;;0.00;0.00;;;3.00;99.90;;;;;;5096535;28;20131;-87
2023/05/03 02:57:19;;;;;;;0.00;0.00;;;3.00;99.90;;;;;;5096021;28;20044;-86
2023/05/03 02:59:48;;;;;;;0.00;0.00;;;2.80;99.90;;;;;;5097752;28;20080;-85
2023/05/03 03:02:13;;;;;;;0.00;0.00;;;3.40;99.90;;;;;;5079552;28;20048;-86
2023/05/03 03:04:39;;;;;;;0.00;0.00;;;3.20;99.90;;;;;;5079118;28;20086;-86
2023/05/03 03:07:07;;;;;;;0.00;0.00;;;3.00;99.90;;;;;;5062040;28;20132;-85
2023/05/03 03:09:34;;;;;;;0.00;0.00;;;3.10;99.90;;;;;;5095410;28;20036;-85
2023/05/03 03:12:04;;;;;;;0.00;0.00;;;3.80;99.90;;;;;;5061803;28;20060;-85
2023/05/03 03:14:29;;;;;;;0.15;0.15;;;3.10;99.90;;;;;;5095395;28;20078;-85
2023/05/03 03:17:00;;;;;;;0.00;0.00;;;2.70;99.90;;;;;;5095850;28;20047;-86
2023/05/03 03:19:26;;;;;;;0.00;0.00;;;2.70;99.90;;;;;;5062990;28;20040;-85
2023/05/03 03:21:51;;;;;;;0.00;0.00;;;2.70;99.90;;;;;;5078760;28;20421;-86
2023/05/03 03:24:20;;;;;;;0.10;0.10;;;3.40;99.90;;;;;;5061908;28;20048;-86
2023/05/03 03:26:46;;;;;;;0.00;0.00;;;3.00;99.90;;;;;;5062086;28;20043;-86
2023/05/03 03:29:11;;;;;;;0.00;0.00;;;2.60;99.90;;;;;;5078958;28;20059;-86
2023/05/03 03:31:37;;;;;;;0.10;0.10;;;3.10;99.90;;;;;;5045678;28;20483;-86
2023/05/03 03:34:03;;;;;;;0.35;0.05;;;2.90;99.90;;;;;;5061798;28;20403;-86
2023/05/03 03:36:31;;;;;;;0.00;0.00;;;2.60;99.90;;;;;;5079073;28;20044;-86
2023/05/03 03:39:01;;;;;;;0.00;0.00;;;2.50;99.90;;;;;;5078412;28;20506;-86
2023/05/03 03:41:27;;;;;;;0.10;0.10;;;2.90;99.90;;;;;;5095677;28;20067;-86
2023/05/03 03:43:53;;;;;;;0.00;0.00;;;2.60;99.90;;;;;;5079065;28;20448;-85
2023/05/03 03:46:19;;;;;;;0.00;0.00;;;2.60;99.90;;;;;;5078676;28;20069;-86
2023/05/03 03:48:44;;;;;;;0.45;0.10;;;2.50;99.90;;;;;;5078711;28;20043;-86
2023/05/03 03:51:14;;;;;;;0.47;0.00;;;2.90;99.90;;;;;;5061711;28;20048;-86
2023/05/03 03:53:42;;;;;;;0.00;0.00;;;2.60;99.90;;;;;;5079489;28;20048;-86
2023/05/03 03:56:08;;;;;;;0.00;0.00;;;2.60;99.90;;;;;;5095195;28;20052;-85
2023/05/03 03:58:34;;;;;;;0.00;0.00;;;2.50;99.90;;;;;;5060876;28;20079;-86
2023/05/03 04:01:00;;;;;;;0.00;0.00;;;3.00;99.90;;;;;;5061616;28;20138;-85
2023/05/03 04:03:26;;;;;;;0.00;0.00;;;3.00;99.90;;;;;;5078413;28;20062;-85
2023/05/03 04:05:55;;;;;;;0.00;0.00;;;2.40;99.90;;;;;;5078387;28;20044;-86
2023/05/03 04:08:21;;;;;;;0.00;0.00;;;2.40;99.90;;;;;;5095063;28;20044;-85
2023/05/03 04:10:47;;;;;;;0.00;0.00;;;2.60;99.90;;;;;;5077051;28;20403;-85
2023/05/03 04:13:12;;;;;;;0.00;0.00;;;2.50;99.90;;;;;;5077365;28;20169;-85
2023/05/03 04:15:38;;;;;;;0.00;0.00;;;2.40;99.90;;;;;;5060824;28;20039;-85
2023/05/03 04:18:07;;;;;;;0.00;0.00;;;2.40;99.90;;;;;;5078061;28;20083;-85
2023/05/03 04:20:38;;;;;;;0.00;0.00;;;2.50;99.90;;;;;;5078334;28;20043;-85
2023/05/03 04:23:04;;;;;;;0.00;0.00;;;2.70;99.90;;;;;;5094239;28;20054;-86
2023/05/03 04:25:30;;;;;;;0.00;0.00;;;3.20;99.90;;;;;;5077407;28;20039;-86
2023/05/03 04:27:57;;;;;;;0.00;0.00;;;2.50;99.90;;;;;;5076974;28;20411;-86
2023/05/03 04:30:25;;;;;;;0.00;0.00;;;2.60;99.90;;;;;;5093513;28;20121;-86
2023/05/03 04:32:53;;;;;;;0.00;0.00;;;2.50;99.90;;;;;;5077706;28;20135;-85
2023/05/03 04:35:19;;;;;;;0.38;0.10;;;2.50;99.90;;;;;;5061302;28;20051;-85
2023/05/03 04:37:45;;;;;;;0.00;0.00;;;2.50;99.90;;;;;;5094116;28;20040;-86
2023/05/03 04:40:11;;;;;;;0.00;0.00;;;2.50;99.90;;;;;;5093982;28;20534;-85
2023/05/03 04:42:38;;;;;;;0.00;0.00;;;2.40;99.90;;;;;;5094935;28;20048;-86
2023/05/03 04:45:08;;;;;;;0.00;0.00;;;3.00;99.90;;;;;;5077524;28;20058;-85
2023/05/03 04:47:34;;;;;;;0.00;0.00;;;2.50;99.90;;;;;;5076935;28;20087;-85
2023/05/03 04:50:05;;;;;;;0.00;0.00;;;2.90;99.90;;;;;;5077168;28;20130;-85
2023/05/03 04:52:30;;;;;;;0.00;0.00;;;2.60;99.90;;;;;;5060860;28;20048;-85
2023/05/03 04:54:56;;;;;;;0.00;0.00;;;2.80;99.90;;;;;;5059997;28;20044;-85
2023/05/03 04:57:22;;;;;;;0.00;0.00;;;2.80;99.90;;;;;;5060024;28;20050;-85
2023/05/03 04:59:48;;;;;;;0.00;0.00;;;2.70;99.90;;;;;;5094419;28;20116;-85
2023/05/03 05:02:14;;;;;;;0.00;0.00;;;2.80;99.90;;;;;;5093772;28;20460;-85
2023/05/03 05:04:40;;;;;;;0.00;0.00;;;3.00;99.90;;;;;;5076852;28;20123;-85
2023/05/03 05:07:06;;;;;;;0.00;0.00;;;3.00;99.90;;;;;;5044012;28;20127;-85
2023/05/03 05:09:32;;;;;;;0.10;0.08;;;3.00;99.90;;;;;;5076727;28;20123;-85
2023/05/03 05:11:58;;;;;;;0.00;0.00;;;3.10;99.90;;;;;;5092540;28;20052;-86
2023/05/03 05:14:27;;;;;;;0.00;0.00;;;3.60;99.90;;;;;;5060505;28;20048;-86
2023/05/03 05:16:55;;;;;;;0.00;0.00;;;3.20;99.90;;;;;;5076555;28;20048;-86
2023/05/03 05:19:21;;;;;;;0.00;0.00;;;3.30;99.90;;;;;;5093292;28;20583;-86
2023/05/03 05:21:47;;;;;;;0.22;0.08;;;3.80;99.90;;;;;;5076755;28;20396;-86
2023/05/03 05:24:12;;;;;;;0.00;0.00;;;3.50;99.90;;;;;;5060541;28;20055;-85
2023/05/03 05:26:40;;;;;;;0.00;0.00;;;3.90;99.90;;;;;;5076615;28;20503;-85
2023/05/03 05:29:06;;;;;;;0.00;0.00;;;3.70;99.90;;;;;;5076932;28;20036;-86
2023/05/03 05:31:32;;;;;;;0.00;0.00;;;4.00;99.90;;;;;;5056447;28;20534;-85
2023/05/03 05:34:00;;;;;;;1.65;0.52;;;4.00;99.90;;;;;;5056195;28;20048;-85
2023/05/03 05:36:26;;;;;;;0.00;0.00;;;4.40;99.90;;;;;;5072869;28;20060;-86
2023/05/03 05:38:52;;;;;;;0.00;0.00;;;4.20;99.90;;;;;;5040134;28;20049;-85
2023/05/03 05:41:17;;;;;;;0.00;0.00;;;4.60;99.90;;;;;;5056497;28;20045;-86
2023/05/03 05:43:44;;;;;;;0.00;0.00;;;4.60;99.90;;;;;;5073429;28;20033;-85
2023/05/03 05:46:10;;;;;;;0.00;0.00;;;4.50;99.90;;;;;;5056634;28;20170;-85
2023/05/03 05:48:36;;;;;;;1.77;1.10;;;4.70;99.90;;;;;;5039985;28;20132;-86
2023/05/03 05:51:02;;;;;;;0.00;0.00;;;4.70;99.90;;;;;;5039414;28;20143;-85
2023/05/03 05:53:28;;;;;;;0.00;0.00;;;4.80;99.90;;;;;;5039535;28;20044;-85
2023/05/03 05:55:54;;;;;;;0.00;0.00;;;4.90;99.90;;;;;;5039493;28;20053;-85
2023/05/03 05:58:22;;;;;;;0.00;0.00;;;5.00;99.90;;;;;;5055501;28;20044;-85
2023/05/03 06:00:48;;;;;;;0.22;0.20;;;5.10;99.90;;;;;;5039943;28;20091;-85
2023/05/03 06:03:14;;;;;;;0.00;0.00;;;5.20;99.90;;;;;;5039911;28;20216;-85
2023/05/03 06:05:40;;;;;;;0.00;0.00;;;5.50;99.90;;;;;;5040927;28;20044;-85
2023/05/03 06:08:07;;;;;;;0.00;0.00;;;5.50;99.90;;;;;;5056235;28;20048;-85
2023/05/03 06:10:33;;;;;;;0.00;0.00;;;5.60;99.90;;;;;;5055578;28;20476;-85
2023/05/03 06:13:02;;;;;;;0.00;0.00;;;5.70;99.90;;;;;;5073073;28;20053;-86
2023/05/03 06:15:28;;;;;;;0.00;0.00;;;5.90;99.90;;;;;;5055637;28;20510;-85
2023/05/03 06:17:54;;;;;;;0.00;0.00;;;5.90;99.90;;;;;;5055967;28;20131;-86
2023/05/03 06:20:20;;;;;;;0.38;0.10;;;6.10;99.90;;;;;;5056503;28;20049;-86
2023/05/03 06:22:45;;;;;;;0.00;0.00;;;6.40;99.90;;;;;;5056972;28;20052;-85
2023/05/03 06:25:14;;;;;;;0.00;0.00;;;6.30;99.90;;;;;;5059552;28;20052;-85
2023/05/03 06:27:43;;;;;;;0.00;0.00;;;6.50;99.90;;;;;;5032322;28;20044;-85
2023/05/03 06:30:09;;;;;;;0.00;0.00;;;6.60;99.90;;;;;;5076253;28;20040;-85
2023/05/03 06:32:37;;;;;;;0.00;0.00;;;6.90;99.90;;;;;;5043417;28;20071;-84
2023/05/03 06:35:02;;;;;;;0.00;0.00;;;7.00;99.90;;;;;;5043037;28;20044;-84
2023/05/03 06:37:28;;;;;;;0.05;0.05;;;7.10;99.90;;;;;;5059609;28;20393;-86
2023/05/03 06:39:54;;;;;;;0.00;0.00;;;7.30;99.90;;;;;;5076475;28;20488;-85
2023/05/03 06:42:20;;;;;;;0.08;0.08;;;7.40;99.90;;;;;;5059572;28;20545;-85
2023/05/03 06:44:47;;;;;;;0.38;0.30;;;7.50;99.90;;;;;;5043094;28;20123;-85
2023/05/03 06:47:15;;;;;;;0.00;0.00;;;7.40;99.90;;;;;;5059420;28;20037;-84
2023/05/03 06:49:41;;;;;;;0.00;0.00;;;7.50;99.90;;;;;;5059192;28;20044;-86
2023/05/03 06:52:07;;;;;;;0.00;0.00;;;7.50;99.90;;;;;;5059578;28;20500;-85
2023/05/03 06:54:33;;;;;;;0.00;0.00;;;7.60;99.90;;;;;;5059631;28;20049;-87
2023/05/03 06:57:03;;;;;;;0.00;0.00;;;7.70;99.90;;;;;;5075908;28;20186;-87
2023/05/03 06:59:32;;;;;;;0.17;0.00;;;7.90;99.90;;;;;;5042681;28;20477;-87
2023/05/03 07:01:57;;;;;;;0.00;0.00;;;8.20;99.90;;;;;;5059688;28;20050;-84
2023/05/03 07:04:23;;;;;;;0.00;0.00;;;8.50;99.90;;;;;;5058957;28;20131;-86
2023/05/03 07:06:49;;;;;;;0.20;0.10;;;8.90;99.90;;;;;;5058592;28;20048;-86
2023/05/03 07:09:18;;;;;;;8.40;0.95;;;8.80;99.90;;;;;;5058965;28;20045;-86
2023/05/03 07:11:49;;;;;;;0.00;0.00;;;8.90;99.90;;;;;;5075629;28;20500;-86
2023/05/03 07:14:15;;;;;;;0.00;0.00;;;8.90;99.90;;;;;;5058979;28;20052;-86
2023/05/03 07:16:43;;;;;;;0.10;0.10;;;8.90;99.90;;;;;;5075976;28;20060;-85
2023/05/03 07:19:09;;;;;;;0.17;0.15;;;9.10;99.90;;;;;;5043222;28;20439;-86
2023/05/03 07:21:35;;;;;;;0.00;0.00;;;9.50;99.90;;;;;;5062133;28;20040;-83
2023/05/03 07:24:01;;;;;;;0.00;0.00;;;9.80;99.90;;;;;;5061411;28;20525;-84
2023/05/03 07:26:26;;;;;;;0.00;0.00;;;9.90;99.90;;;;;;5077878;28;20084;-86
2023/05/03 07:28:52;;;;;;;0.00;0.00;;;9.90;99.90;;;;;;5061357;28;20484;-84
2023/05/03 07:31:21;;;;;;;0.00;0.00;;;9.90;99.90;;;;;;5061656;28;20067;-84
2023/05/03 07:33:48;;;;;;;0.00;0.00;;;10.00;99.90;;;;;;5077843;28;20044;-83
2023/05/03 07:36:14;;;;;;;0.00;0.00;;;10.00;99.90;;;;;;5094438;28;20075;-83
2023/05/03 07:38:40;;;;;;;0.00;0.00;;;10.00;99.90;;;;;;5044692;28;20082;-83
2023/05/03 07:41:06;;;;;;;0.00;0.00;;;10.30;99.90;;;;;;5060786;28;20510;-84
2023/05/03 07:43:34;;;;;;;0.00;0.00;;;10.40;99.90;;;;;;5078199;28;20085;-86
2023/05/03 07:46:00;;;;;;;0.00;0.00;;;10.60;99.90;;;;;;5077754;28;20101;-84
2023/05/03 07:48:26;;;;;;;0.00;0.00;;;10.80;99.90;;;;;;5061250;28;20534;-84
2023/05/03 07:50:51;;;;;;;0.10;0.00;;;10.90;99.90;;;;;;5094742;28;20036;-84
2023/05/03 07:53:19;;;;;;;0.00;0.00;;;10.80;99.90;;;;;;5077650;28;20126;-84
2023/05/03 07:55:45;;;;;;;0.10;0.00;;;10.90;99.90;;;;;;5077540;28;20047;-85
2023/05/03 07:58:17;;;;;;;0.00;0.00;;;10.80;99.90;;;;;;5078036;28;20059;-85
2023/05/03 08:00:42;;;;;;;0.00;0.00;;;10.70;99.90;;;;;;5094666;28;20044;-84
2023/05/03 08:03:11;;;;;;;0.00;0.00;;;10.60;99.90;;;;;;5077877;28;20496;-85
2023/05/03 08:05:37;;;;;;;0.00;0.00;;;10.70;99.90;;;;;;5077714;28;20484;-84
2023/05/03 08:08:04;;;;;;;0.00;0.00;;;10.60;99.90;;;;;;5077458;28;20087;-84
2023/05/03 08:10:30;;;;;;;0.20;0.20;;;10.50;99.90;;;;;;5061944;28;20073;-83
2023/05/03 08:12:56;;;;;;;0.00;0.00;;;10.50;99.90;;;;;;5080979;28;20047;-83
2023/05/03 08:15:22;;;;;;;0.00;0.00;;;10.40;99.90;;;;;;5064268;28;20048;-83
2023/05/03 08:17:48;;;;;;;0.00;0.00;;;10.40;99.90;;;;;;5097949;28;20087;-84
2023/05/03 08:20:14;;;;;;;0.00;0.00;;;10.50;99.90;;;;;;5064399;28;20501;-84
2023/05/03 08:22:44;;;;;;;0.05;0.05;;;10.70;99.90;;;;;;5063792;28;20411;-84
2023/05/03 08:25:11;;;;;;;0.00;0.00;;;11.20;99.90;;;;;;5096893;28;20086;-84
2023/05/03 08:27:37;;;;;;;0.00;0.00;;;11.30;99.90;;;;;;5079914;28;20483;-84
2023/05/03 08:30:06;;;;;;;0.00;0.00;;;11.40;99.90;;;;;;5080171;28;20093;-84
2023/05/03 08:32:35;;;;;;;0.00;0.00;;;11.20;99.20;;;;;;5080373;28;20128;-84
2023/05/03 08:35:05;;;;;;;0.00;0.00;;;11.20;99.90;;;;;;5096468;28;20035;-85
2023/05/03 08:37:42;;;;;;;0.00;0.00;;;11.30;99.90;;;;;;5064504;28;20407;-84
2023/05/03 08:40:14;;;;;;;0.65;0.38;;;11.40;99.90;;;;;;5080412;28;20040;-84
2023/05/03 08:42:44;;;;;;;0.00;0.00;;;11.30;99.90;;;;;;5097331;28;20051;-83
2023/05/03 08:45:14;;;;;;;0.08;0.00;;;11.40;99.90;;;;;;5080049;28;20051;-84
2023/05/03 08:47:43;;;;;;;0.00;0.00;;;11.60;99.90;;;;;;5078987;28;20055;-83
2023/05/03 08:50:12;;;;;;;0.05;0.05;;;12.10;99.80;;;;;;5058388;28;20047;-84
2023/05/03 08:52:42;;;;;;;0.00;0.00;;;12.30;99.40;;;;;;5073516;28;20501;-84
2023/05/03 08:55:09;;;;;;;0.00;0.00;;;12.40;98.40;;;;;;5060780;28;20047;-84
2023/05/03 08:57:35;;;;;;;0.00;0.00;;;12.60;97.40;;;;;;5095930;28;20051;-84
2023/05/03 09:00:04;;;;;;;0.00;0.00;;;13.10;99.70;;;;;;5079825;28;20051;-84
2023/05/03 09:02:33;;;;;;;0.00;0.00;;;13.60;98.30;;;;;;5079457;28;20130;-84
2023/05/03 09:04:59;;;;;;;0.00;0.00;;;13.80;95.50;;;;;;5076013;28;20091;-83
2023/05/03 09:07:25;;;;;;;0.00;0.00;;;14.20;97.80;;;;;;5050887;28;20471;-84
2023/05/03 09:09:53;;;;;;;0.20;0.05;;;14.40;94.60;;;;;;5090910;28;20134;-84
2023/05/03 09:12:36;;;;;;;0.00;0.00;;;14.50;93.50;;;;;;5064022;28;20057;-84
2023/05/03 09:15:05;;;;;;;0.00;0.00;;;14.40;92.30;;;;;;5071669;28;20470;-84
2023/05/03 09:17:33;;;;;;;0.00;0.00;;;14.40;92.20;;;;;;5077666;28;20047;-84
2023/05/03 09:19:59;;;;;;;0.00;0.00;;;14.40;90.20;;;;;;5059384;28;20044;-84
2023/05/03 09:22:31;;;;;;;0.00;0.00;;;14.40;89.20;;;;;;5072659;28;20059;-84
2023/05/03 09:24:59;;;;;;;0.00;0.00;;;14.60;91.30;;;;;;5089636;28;20458;-84
2023/05/03 09:27:26;;;;;;;0.05;0.05;;;14.40;90.40;;;;;;5075389;28;20047;-84
2023/05/03 09:29:52;;;;;;;0.00;0.00;;;14.40;92.50;;;;;;5092343;28;20078;-83
2023/05/03 09:32:21;;;;;;;1.77;0.70;;;14.40;88.70;;;;;;5055696;28;20059;-84
2023/05/03 09:34:49;;;;;;;0.00;0.00;;;14.00;88.20;;;;;;5071402;28;20076;-84
2023/05/03 09:37:15;;;;;;;0.00;0.00;;;13.90;91.00;;;;;;5059000;28;20475;-82
2023/05/03 09:39:45;;;;;;;0.00;0.00;;;13.80;90.00;;;;;;5075426;28;20086;-83
2023/05/03 09:42:16;;;;;;;0.00;0.00;;;13.90;90.60;;;;;;5075613;28;20091;-83
2023/05/03 09:44:52;;;;;;;0.00;0.00;;;13.90;91.60;;;;;;5089421;28;20041;-83
2023/05/03 09:47:20;;;;;;;0.38;0.22;;;14.10;89.80;;;;;;5092547;28;20051;-82
2023/05/03 09:49:46;;;;;;;0.00;0.00;;;14.00;89.30;;;;;;5092408;28;20040;-82
2023/05/03 09:52:12;;;;;;;0.00;0.00;;;13.70;89.40;;;;;;5075153;28;20075;-83
2023/05/03 09:54:38;;;;;;;0.00;0.00;;;14.00;88.60;;;;;;5075449;28;20076;-82
2023/05/03 09:57:06;;;;;;;0.00;0.00;;;13.80;89.00;;;;;;5072811;28;20553;-82
2023/05/03 09:59:34;;;;;;;0.00;0.00;;;13.70;87.60;;;;;;5093211;28;20127;-82
2023/05/03 10:02:03;;;;;;;0.00;0.00;;;14.00;92.00;;;;;;5085381;28;20094;-82
2023/05/03 10:04:42;;;;;;;0.10;0.08;;;14.30;89.00;;;;;;5090409;28;20049;-82
2023/05/03 10:07:12;;;;;;;0.00;0.00;;;14.90;91.20;;;;;;5077858;28;20114;-82
2023/05/03 10:09:39;;;;;;;0.00;0.00;;;14.90;89.20;;;;;;5078577;28;20032;-82
2023/05/03 10:12:07;;;;;;;0.00;0.00;;;14.50;84.80;;;;;;5097187;28;20053;-82
2023/05/03 10:14:34;;;;;;;0.00;0.00;;;14.20;86.40;;;;;;5087013;28;20090;-82
2023/05/03 10:17:06;;;;;;;0.00;0.00;;;13.80;87.80;;;;;;5080046;28;20078;-82
2023/05/03 10:19:34;;;;;;;0.00;0.00;;;13.60;89.10;;;;;;5099960;28;20047;-82
2023/05/03 10:22:05;;;;;;;0.00;0.00;;;13.50;87.00;;;;;;5090696;28;20122;-83
2023/05/03 10:24:35;;;;;;;0.00;0.00;;;13.60;86.10;;;;;;5080841;28;20131;-82
2023/05/03 10:27:01;;;;;;;0.00;0.00;;;14.00;88.20;;;;;;5109584;28;20043;-82
2023/05/03 10:29:33;;;;;;;0.20;0.15;;;14.40;90.60;;;;;;5067020;28;20040;-82
2023/05/03 10:32:00;;;;;;;0.00;0.00;;;14.30;87.30;;;;;;5090012;28;20131;-82
2023/05/03 10:34:31;;;;;;;10.45;0.75;;;14.00;85.10;;;;;;5091740;28;20061;-82
2023/05/03 10:37:01;;;;;;;0.10;0.10;;;14.00;88.80;;;;;;5092151;28;20128;-82
2023/05/03 10:39:27;;;;;;;0.77;0.30;;;14.10;87.70;;;;;;5100319;28;20407;-82
2023/05/03 10:42:06;;;;;;;0.00;0.00;;;14.20;85.30;;;;;;5107751;28;20109;-82
2023/05/03 10:44:52;;;;;;;0.00;0.00;;;14.60;88.80;;;;;;5092678;28;20052;-82
2023/05/03 10:47:23;;;;;;;0.00;0.00;;;15.00;87.10;;;;;;5082376;28;20578;-82
2023/05/03 10:50:14;;;;;;;0.00;0.00;;;15.10;85.20;;;;;;5116352;28;20391;-82
2023/05/03 10:52:40;;;;;;;0.00;0.00;;;15.30;84.00;;;;;;5081073;28;20059;-82
2023/05/03 10:55:19;;;;;;;0.10;0.10;;;15.30;83.20;;;;;;5093412;28;20503;-82
2023/05/03 10:57:47;;;;;;;0.00;0.00;;;15.60;88.20;;;;;;5085310;28;20053;-82
2023/05/03 11:00:31;;;;;;;0.00;0.00;;;15.70;85.20;;;;;;5084777;28;20048;-82
2023/05/03 11:03:16;;;;;;;0.05;0.00;;;15.90;83.00;;;;;;5095038;28;20100;-83
2023/05/03 11:05:42;;;;;;;3.65;0.45;;;16.10;84.30;;;;;;5101747;28;20388;-83
2023/05/03 11:08:16;;;;;;;0.00;0.00;;;15.90;80.90;;;;;;5098855;28;20054;-83
2023/05/03 11:10:44;;;;;;;0.00;0.00;;;15.90;81.30;;;;;;5080451;28;20055;-83
2023/05/03 11:13:10;;;;;;;0.00;0.00;;;15.60;80.90;;;;;;5092301;28;20135;-82
2023/05/03 11:15:37;;;;;;;0.00;0.00;;;15.60;79.80;;;;;;5088712;28;20053;-83
2023/05/03 11:18:05;;;;;;;0.00;0.00;;;15.70;80.90;;;;;;5094028;28;20044;-83
2023/05/03 11:20:32;;;;;;;0.00;0.00;;;15.80;80.50;;;;;;5101599;28;20496;-83
2023/05/03 11:23:01;;;;;;;0.00;0.00;;;15.90;82.00;;;;;;5111783;28;20097;-86
2023/05/03 11:25:27;;;;;;;0.00;0.00;;;15.70;77.50;;;;;;5083047;28;20079;-85
2023/05/03 11:27:53;;;;;;;0.10;0.10;;;15.90;80.10;;;;;;5089789;28;20048;-84
2023/05/03 11:30:19;;;;;;;0.00;0.00;;;15.60;76.00;;;;;;5106338;28;20043;-83
2023/05/03 11:32:46;;;;;;;0.10;0.10;;;15.80;78.20;;;;;;5082328;28;20044;-81
2023/05/03 11:35:12;;;;;;;0.00;0.00;;;15.70;79.30;;;;;;5111436;28;20047;-81
2023/05/03 11:37:38;;;;;;;0.00;0.00;;;15.90;81.50;;;;;;5100813;28;20043;-80
2023/05/03 11:40:07;;;;;;;0.00;0.00;;;16.10;77.00;;;;;;5060585;28;20073;-82
2023/05/03 11:42:33;;;;;;;0.00;0.00;;;16.20;79.80;;;;;;5087271;28;20044;-82
2023/05/03 11:45:00;;;;;;;0.00;0.00;;;16.40;78.90;;;;;;5093685;28;20048;-83
2023/05/03 11:47:26;;;;;;;0.25;0.20;;;16.10;74.30;;;;;;5093391;28;20059;-83
2023/05/03 11:49:56;;;;;;;0.00;0.00;;;16.20;77.70;;;;;;5085769;28;20482;-83
2023/05/03 11:52:23;;;;;;;0.00;0.00;;;16.00;77.00;;;;;;5085742;28;20124;-82
2023/05/03 11:54:50;;;;;;;2.13;0.30;;;16.20;79.40;;;;;;5093669;28;20055;-82
2023/05/03 11:57:16;;;;;;;0.22;0.10;;;16.40;77.40;;;;;;5063688;28;20077;-83
2023/05/03 11:59:43;;;;;;;0.30;0.20;;;16.40;75.80;;;;;;5107263;28;20500;-82
2023/05/03 12:02:12;;;;;;;0.00;0.00;;;16.20;74.40;;;;;;5104631;28;20048;-82
2023/05/03 12:04:40;;;;;;;0.13;0.13;;;16.30;75.30;;;;;;5083076;28;20044;-82
2023/05/03 12:07:07;;;;;;;0.05;0.05;;;16.30;76.10;;;;;;5111010;28;20081;-83
2023/05/03 12:09:34;;;;;;;2.17;0.55;;;16.20;73.50;;;;;;5082792;28;20437;-82
2023/05/03 12:12:01;;;;;;;0.08;0.00;;;16.50;76.90;;;;;;5111181;28;20043;-82
2023/05/03 12:14:27;;;;;;;0.00;0.00;;;16.40;75.10;;;;;;5074454;28;20063;-83
2023/05/03 12:16:54;;;;;;;0.00;0.00;;;16.70;78.40;;;;;;5064065;28;20091;-82
2023/05/03 12:19:29;;;;;;;0.00;0.00;;;16.70;75.90;;;;;;5075638;28;20121;-82
2023/05/03 12:21:55;;;;;;;0.00;0.00;;;16.90;77.10;;;;;;5073813;28;20040;-82
2023/05/03 12:24:23;;;;;;;0.43;0.40;;;17.10;75.80;;;;;;5057011;28;20411;-83
2023/05/03 12:26:49;;;;;;;0.00;0.00;;;17.10;73.80;;;;;;5056525;28;20036;-82
2023/05/03 12:29:15;;;;;;;0.00;0.00;;;17.20;71.30;;;;;;5056701;28;20154;-82
2023/05/03 12:31:41;;;;;;;0.03;0.03;;;17.00;71.90;;;;;;5073524;28;20072;-82
2023/05/03 12:34:07;;;;;;;0.00;0.00;;;16.90;72.70;;;;;;5073670;28;20447;-82
2023/05/03 12:36:34;;;;;;;0.00;0.00;;;16.90;72.60;;;;;;5056724;28;20439;-82
2023/05/03 12:39:01;;;;;;;0.00;0.00;;;17.00;73.50;;;;;;5056715;28;20051;-83
2023/05/03 12:41:30;;;;;;;0.00;0.00;;;16.90;71.30;;;;;;5056905;28;20087;-82
2023/05/03 12:43:57;;;;;;;0.00;0.00;;;17.10;72.50;;;;;;5041082;28;20131;-83
2023/05/03 12:46:23;;;;;;;0.10;0.10;;;17.30;73.60;;;;;;5057136;28;20056;-83
2023/05/03 12:48:50;;;;;;;0.00;0.00;;;17.20;72.00;;;;;;5056626;28;20365;-82
2023/05/03 12:51:17;;;;;;;0.00;0.00;;;16.80;70.00;;;;;;5056752;28;20041;-83
2023/05/03 12:53:42;;;;;;;0.05;0.00;;;16.50;69.80;;;;;;5056502;28;20048;-82
2023/05/03 13:12:19;;;;;;;2.22;1.05;;;;;;;;;;5111573;27;20166;-82
2023/05/03 13:14:46;;;;;;;1.55;0.57;;;;;;;;;;5110786;28;20071;-82